Time;durP1;ratioP1;P1;durP2;ratioP2;P2;SDS_P1;SDS_P2;PMS_P1;PMS_P2;Temp;Humidity;BMP_temperature;BMP_pressure;BME280_temperature;BME280_humidity;BME280_pressure;Samples;Min_cycle;Max_cycle;Signal;HPM_P1;HPM_P2
2022/01/24 00:01:54;;;;;;;31.73;15.00;;;;;;;2.28;74.95;101997.69;4919552;28;101220;-89
2022/01/24 00:04:23;;;;;;;29.70;15.17;;;;;;;2.33;74.99;102006.44;4919303;28;97161;-89
2022/01/24 00:06:49;;;;;;;29.60;14.63;;;;;;;2.33;73.90;101976.25;4912185;28;96852;-89
2022/01/24 00:09:15;;;;;;;30.73;15.10;;;;;;;2.42;74.63;102019.66;4938279;28;100696;-88
2022/01/24 00:12:00;;;;;;;33.90;15.43;;;;;;;2.47;74.30;102015.47;4948995;28;99754;-89
2022/01/24 00:27:50;;;;;;;31.53;15.80;;;;;;;2.32;74.27;101987.44;4936795;28;97337;-90
2022/01/24 00:30:16;;;;;;;31.57;15.87;;;;;;;2.21;74.68;101988.84;4930718;28;99917;-89
2022/01/24 00:32:42;;;;;;;29.67;14.63;;;;;;;2.16;74.90;101977.50;4932237;28;100313;-88
2022/01/24 00:35:08;;;;;;;33.23;15.23;;;;;;;2.45;74.44;101993.81;4923811;28;96808;-88
2022/01/24 00:37:34;;;;;;;30.37;15.60;;;;;;;2.55;73.56;101987.16;4962291;28;97397;-90
2022/01/24 00:40:02;;;;;;;34.10;17.30;;;;;;;2.19;74.51;101975.88;4917975;28;101607;-88
2022/01/24 00:42:31;;;;;;;28.20;15.73;;;;;;;2.18;74.86;101970.63;4919168;28;100295;-89
2022/01/24 00:45:13;;;;;;;34.80;17.10;;;;;;;2.37;74.29;101979.78;4948630;28;96860;-90
2022/01/24 00:53:15;;;;;;;27.63;14.57;;;;;;;2.41;74.14;101989.38;4952073;28;101513;-89
2022/01/24 00:55:42;;;;;;;34.10;15.60;;;;;;;2.46;74.25;101995.56;4915995;28;97366;-89
2022/01/24 00:58:07;;;;;;;28.17;13.47;;;;;;;2.37;73.99;101996.22;4954770;28;96714;-89
2022/01/24 01:00:33;;;;;;;30.30;14.57;;;;;;;2.36;74.01;102002.25;4923998;28;100915;-90
2022/01/24 01:02:59;;;;;;;24.17;14.27;;;;;;;2.33;73.81;101986.63;4916620;28;100811;-88
2022/01/24 01:06:05;;;;;;;26.00;13.23;;;;;;;2.41;73.51;101997.16;4959928;28;98065;-90
2022/01/24 01:19:02;;;;;;;25.83;13.77;;;;;;;2.48;73.53;101974.03;4944268;28;96881;-88
2022/01/24 01:21:29;;;;;;;23.07;12.47;;;;;;;2.37;74.24;101990.16;4946700;28;101570;-89
2022/01/24 01:23:57;;;;;;;22.07;12.13;;;;;;;2.49;73.27;101974.91;4952317;28;100872;-90
2022/01/24 01:26:36;;;;;;;26.13;12.90;;;;;;;2.36;73.66;101988.41;4933940;28;96707;-88
2022/01/24 01:29:09;;;;;;;24.03;13.37;;;;;;;2.31;74.01;101979.63;4936799;28;97107;-90
2022/01/24 01:34:55;;;;;;;24.80;11.77;;;;;;;2.27;74.45;101996.81;4954057;28;101366;-89
2022/01/24 01:55:42;;;;;;;29.80;14.20;;;;;;;2.41;74.64;102004.94;4964403;28;101362;-88
2022/01/24 01:58:16;;;;;;;23.57;12.53;;;;;;;2.24;74.84;101996.72;4936156;28;97437;-90
2022/01/24 02:00:45;;;;;;;28.37;14.47;;;;;;;2.33;74.99;101993.47;4921335;28;96982;-88
2022/01/24 02:03:11;;;;;;;28.13;14.10;;;;;;;2.31;74.58;101995.19;4934553;28;101349;-89
2022/01/24 02:05:37;;;;;;;31.47;14.30;;;;;;;2.28;74.80;101976.97;4937102;28;100144;-89
2022/01/24 02:08:03;;;;;;;33.73;16.30;;;;;;;2.48;74.29;102010.34;4918495;28;96991;-89
2022/01/24 02:10:31;;;;;;;35.53;17.77;;;;;;;2.44;73.87;101979.09;4942169;28;96742;-88
2022/01/24 02:12:57;;;;;;;39.60;18.97;;;;;;;2.55;74.19;101995.81;4920199;28;100856;-90
2022/01/24 02:15:37;;;;;;;38.00;18.77;;;;;;;2.46;74.29;101983.47;4936876;28;100845;-91
2022/01/24 02:20:43;;;;;;;38.30;18.20;;;;;;;2.43;74.51;101995.50;4952910;28;96866;-88
2022/01/24 02:25:40;;;;;;;34.97;16.38;;;;;;;2.46;74.36;101978.28;4953869;28;100908;-90
2022/01/24 02:28:10;;;;;;;32.00;14.13;;;;;;;2.45;74.43;101978.28;4937255;28;96648;-91
2022/01/24 02:31:03;;;;;;;32.47;14.67;;;;;;;2.30;74.32;101970.97;4918761;28;96906;-91
2022/01/24 02:33:29;;;;;;;30.87;14.20;;;;;;;2.39;74.73;101986.78;4953890;28;98165;-88
2022/01/24 02:35:55;;;;;;;24.43;13.30;;;;;;;2.45;74.44;101989.50;4936522;28;101300;-90
2022/01/24 02:38:42;;;;;;;24.70;13.00;;;;;;;2.48;74.25;101976.63;4956083;28;97874;-89
2022/01/24 02:49:12;;;;;;;27.13;13.60;;;;;;;2.48;74.37;101975.75;4957426;28;96920;-89
2022/01/24 02:51:47;;;;;;;27.87;14.07;;;;;;;2.54;74.26;101972.44;4955685;28;97836;-88
2022/01/24 02:54:24;;;;;;;25.23;13.63;;;;;;;2.74;73.61;101991.97;4920750;28;101661;-88
2022/01/24 02:56:51;;;;;;;21.83;12.83;;;;;;;2.71;73.46;101985.00;4935920;28;100414;-88
2022/01/24 02:59:16;;;;;;;27.47;14.03;;;;;;;2.77;73.09;101993.75;4952085;28;96920;-88
2022/01/24 03:01:44;;;;;;;25.07;12.90;;;;;;;2.64;73.07;101984.78;4952329;28;96872;-88
2022/01/24 03:04:09;;;;;;;25.53;13.60;;;;;;;2.37;73.26;101936.59;4919854;28;99489;-89
2022/01/24 03:06:35;;;;;;;24.30;13.27;;;;;;;2.55;73.62;101985.44;4955916;28;100581;-88
2022/01/24 03:09:04;;;;;;;28.40;12.37;;;;;;;2.52;73.95;101976.72;4969662;28;98123;-89
2022/01/24 03:11:51;;;;;;;22.90;11.70;;;;;;;2.45;73.86;101984.34;4932117;28;97275;-90
2022/01/24 03:14:20;;;;;;;20.77;11.40;;;;;;;2.24;73.41;101944.88;4964277;28;101692;-90
2022/01/24 03:16:45;;;;;;;23.43;12.83;;;;;;;2.61;73.63;101995.94;4952217;28;98443;-90
2022/01/24 03:19:11;;;;;;;22.07;11.77;;;;;;;2.28;73.48;101943.28;4968395;28;96722;-91
2022/01/24 03:21:37;;;;;;;20.70;11.13;;;;;;;2.45;73.71;101986.91;4919802;28;96804;-90
2022/01/24 03:24:02;;;;;;;22.37;11.47;;;;;;;2.36;73.48;101954.72;4919986;28;100381;-90
2022/01/24 03:26:28;;;;;;;20.60;11.77;;;;;;;2.42;73.62;101998.94;4933414;28;97936;-89
2022/01/24 03:28:56;;;;;;;20.20;10.83;;;;;;;2.16;73.94;101957.66;4968230;28;96961;-90
2022/01/24 03:31:22;;;;;;;22.50;10.90;;;;;;;2.30;73.47;101978.75;4933094;28;96682;-90
2022/01/24 03:33:47;;;;;;;22.00;11.90;;;;;;;2.55;73.58;102008.75;4917894;28;101608;-90
2022/01/24 03:36:13;;;;;;;22.07;11.83;;;;;;;2.52;73.40;101987.94;4925881;28;101273;-91
2022/01/24 03:38:38;;;;;;;25.53;12.47;;;;;;;2.64;72.91;102010.72;4919301;28;97481;-88
2022/01/24 03:41:04;;;;;;;22.40;12.50;;;;;;;2.44;73.09;101994.66;4920156;28;98571;-89
2022/01/24 03:43:30;;;;;;;21.77;11.53;;;;;;;2.46;73.39;101991.25;4914874;28;100037;-90
2022/01/24 03:48:47;;;;;;;20.93;10.77;;;;;;;2.54;73.08;101996.66;4946757;28;96976;-89
2022/01/24 03:51:14;;;;;;;18.73;10.80;;;;;;;2.27;73.26;101960.53;4945126;28;96838;-90
2022/01/24 03:53:41;;;;;;;21.70;10.97;;;;;;;2.70;72.13;102005.69;4957240;28;100616;-90
2022/01/24 03:56:07;;;;;;;26.03;11.77;;;;;;;2.31;72.38;101970.13;4933658;28;100341;-90
2022/01/24 03:58:33;;;;;;;20.87;10.53;;;;;;;2.43;73.19;102001.56;4949686;28;97524;-90
2022/01/24 04:00:59;;;;;;;21.73;11.27;;;;;;;2.37;73.48;102001.38;4958370;28;96802;-90
2022/01/24 04:03:25;;;;;;;20.33;11.23;;;;;;;2.46;73.25;101998.16;4954222;28;100497;-89
2022/01/24 04:05:51;;;;;;;21.13;11.90;;;;;;;2.45;73.31;102004.19;4969030;28;97329;-93
2022/01/24 04:08:17;;;;;;;25.30;13.57;;;;;;;2.35;73.52;102000.47;4949483;28;96699;-90
2022/01/24 04:10:45;;;;;;;25.43;13.00;;;;;;;2.42;72.81;102010.19;4952366;28;97155;-90
2022/01/24 04:13:56;;;;;;;24.83;12.83;;;;;;;2.41;73.02;101998.03;4946750;28;100204;-90
2022/01/24 04:21:31;;;;;;;27.93;14.53;;;;;;;2.38;73.16;102010.03;4910637;28;97029;-89
2022/01/24 04:24:06;;;;;;;24.63;14.47;;;;;;;2.44;73.01;102010.19;4890700;28;99683;-88
2022/01/24 04:26:32;;;;;;;27.83;14.27;;;;;;;2.40;73.25;102019.63;4897769;28;101460;-89
2022/01/24 04:28:59;;;;;;;26.70;14.47;;;;;;;2.47;72.65;102016.38;4892182;28;97124;-88
2022/01/24 04:31:25;;;;;;;29.67;14.30;;;;;;;2.39;72.88;102023.06;4877140;28;97247;-89
2022/01/24 04:33:51;;;;;;;34.53;16.77;;;;;;;2.25;72.94;101989.00;4887663;28;101470;-87
2022/01/24 04:36:18;;;;;;;31.20;16.87;;;;;;;2.42;72.64;102022.25;4905255;28;101294;-90
2022/01/24 04:38:44;;;;;;;37.40;16.70;;;;;;;2.45;72.62;102019.75;4880363;28;97425;-88
2022/01/24 04:41:18;;;;;;;34.90;17.47;;;;;;;2.48;72.49;102015.50;4905270;28;97698;-88
2022/01/24 04:44:41;;;;;;;39.73;18.43;;;;;;;2.47;71.80;102006.00;4895752;28;100408;-88
2022/01/24 04:52:17;;;;;;;40.53;19.57;;;;;;;2.48;71.42;102027.59;4894387;28;96885;-89
2022/01/24 04:54:43;;;;;;;40.53;19.47;;;;;;;2.48;71.31;102025.88;4881012;28;101207;-90
2022/01/24 04:57:32;;;;;;;34.37;18.27;;;;;;;2.49;70.49;102027.63;4933031;28;100698;-90
2022/01/24 04:59:59;;;;;;;38.10;18.37;;;;;;;2.45;70.97;102020.63;4922786;28;96870;-87
2022/01/24 05:02:26;;;;;;;36.77;17.70;;;;;;;2.40;70.63;102014.44;4882348;28;96939;-88
2022/01/24 05:04:52;;;;;;;44.60;20.90;;;;;;;2.17;70.89;101968.91;4886007;28;97576;-89
2022/01/24 05:07:19;;;;;;;40.67;18.63;;;;;;;2.31;70.36;102000.38;4885467;28;101055;-90
2022/01/24 05:09:53;;;;;;;33.30;17.20;;;;;;;2.41;70.61;102020.50;4862354;28;97038;-91
2022/01/24 05:23:36;;;;;;;31.70;14.17;;;;;;;2.38;69.77;102031.66;4884563;28;97488;-88
2022/01/24 05:26:05;;;;;;;27.87;13.80;;;;;;;2.42;69.79;102038.69;4864883;28;100670;-89
2022/01/24 05:28:32;;;;;;;34.73;14.30;;;;;;;2.38;69.36;102028.19;4868450;28;100968;-89
2022/01/24 05:30:58;;;;;;;31.63;13.67;;;;;;;2.43;69.34;102034.38;4894621;28;96817;-90
2022/01/24 05:33:25;;;;;;;27.80;12.97;;;;;;;2.42;69.50;102040.41;4863943;28;96935;-90
2022/01/24 05:35:51;;;;;;;25.07;11.87;;;;;;;2.39;69.28;102023.06;4882653;28;100215;-88
2022/01/24 05:38:17;;;;;;;24.73;13.17;;;;;;;2.37;69.42;102032.50;4971131;28;100058;-89
2022/01/24 05:40:45;;;;;;;31.83;12.70;;;;;;;2.38;70.00;102047.19;4948212;28;97197;-88
2022/01/24 05:43:11;;;;;;;26.47;12.87;;;;;;;2.48;68.96;102050.94;4949501;28;97225;-89
2022/01/24 05:45:38;;;;;;;26.53;11.50;;;;;;;2.34;69.88;102047.97;4924327;28;102177;-88
2022/01/24 05:48:04;;;;;;;30.87;13.80;;;;;;;2.46;69.17;102042.22;4928075;28;100765;-89
2022/01/24 05:50:29;;;;;;;21.77;11.10;;;;;;;2.22;69.76;102035.56;4930492;28;97048;-89
2022/01/24 05:52:55;;;;;;;23.57;10.83;;;;;;;2.11;70.17;102030.91;4949898;28;97913;-89
2022/01/24 05:55:21;;;;;;;27.57;11.67;;;;;;;2.36;70.04;102050.63;4922482;28;99582;-87
2022/01/24 05:57:48;;;;;;;23.77;11.20;;;;;;;2.32;70.21;102056.53;4961352;28;101911;-87
2022/01/24 06:00:14;;;;;;;28.30;11.50;;;;;;;2.28;70.65;102045.22;4943136;28;96905;-88
2022/01/24 06:02:40;;;;;;;19.27;11.03;;;;;;;2.02;70.62;102016.00;4946380;28;96911;-88
2022/01/24 06:05:07;;;;;;;28.23;13.00;;;;;;;2.35;70.32;102048.84;4933524;28;101081;-88
2022/01/24 06:07:33;;;;;;;23.20;10.77;;;;;;;2.29;70.26;102041.78;4917764;28;100651;-88
2022/01/24 06:09:58;;;;;;;24.33;11.30;;;;;;;2.39;70.10;102058.47;4916740;28;97917;-88
2022/01/24 06:12:25;;;;;;;25.50;11.33;;;;;;;2.42;69.88;102053.38;4917855;28;97292;-88
2022/01/24 06:14:51;;;;;;;27.23;11.70;;;;;;;2.34;69.42;102054.88;4918528;28;98732;-89
2022/01/24 06:17:17;;;;;;;26.80;13.50;;;;;;;2.09;70.02;102007.53;4945389;28;101492;-89
2022/01/24 06:19:44;;;;;;;24.60;12.47;;;;;;;2.28;70.37;102037.44;4962620;28;97148;-88
2022/01/24 06:22:10;;;;;;;23.87;12.10;;;;;;;2.40;70.14;102057.63;4913925;28;97793;-88
2022/01/24 06:24:35;;;;;;;26.40;13.30;;;;;;;2.29;70.03;102036.59;4915506;28;103045;-89
2022/01/24 06:27:01;;;;;;;27.40;13.93;;;;;;;2.38;70.19;102051.50;4920452;28;98337;-88
2022/01/24 06:29:27;;;;;;;26.53;14.30;;;;;;;2.25;70.66;102048.59;4953103;28;97088;-88
2022/01/24 06:31:53;;;;;;;27.77;13.83;;;;;;;1.95;70.66;101989.03;4933146;28;97858;-88
2022/01/24 06:34:19;;;;;;;30.20;13.10;;;;;;;1.93;70.14;101972.56;4919292;28;101227;-89
2022/01/24 06:36:44;;;;;;;27.73;13.57;;;;;;;2.21;70.29;102023.44;4927230;28;101541;-89
2022/01/24 06:39:12;;;;;;;29.37;13.13;;;;;;;2.25;70.62;102048.59;4920197;28;97322;-88
2022/01/24 06:41:38;;;;;;;24.37;12.43;;;;;;;2.21;70.33;102041.59;4936381;28;97771;-88
2022/01/24 06:44:04;;;;;;;30.27;12.60;;;;;;;2.31;69.89;102047.88;4920370;28;102130;-88
2022/01/24 06:46:30;;;;;;;25.77;12.00;;;;;;;2.13;70.25;102040.50;4952395;28;101326;-88
2022/01/24 06:48:55;;;;;;;27.93;11.77;;;;;;;2.18;70.53;102051.88;4949426;28;97218;-88
2022/01/24 06:51:22;;;;;;;29.07;12.60;;;;;;;2.28;69.95;102071.13;4943467;28;96746;-88
2022/01/24 06:53:48;;;;;;;33.40;13.47;;;;;;;1.94;69.76;101997.63;4936253;28;101457;-88
2022/01/24 06:56:14;;;;;;;28.70;13.53;;;;;;;2.17;70.84;102076.00;4921770;28;101481;-89
2022/01/24 06:58:41;;;;;;;28.47;12.47;;;;;;;2.35;69.95;102066.97;4945390;28;97219;-88
2022/01/24 07:01:08;;;;;;;32.13;14.03;;;;;;;2.02;69.97;102045.34;4978846;28;96810;-89
2022/01/24 07:03:34;;;;;;;28.17;12.60;;;;;;;1.95;70.36;102046.03;4920647;28;101338;-90
2022/01/24 07:06:00;;;;;;;23.00;11.67;;;;;;;1.97;70.50;102035.69;4968326;28;98302;-90
2022/01/24 07:08:26;;;;;;;31.40;13.63;;;;;;;2.28;70.53;102081.50;4921223;28;96868;-91
2022/01/24 07:10:52;;;;;;;26.60;12.43;;;;;;;2.32;70.38;102082.44;4953485;28;98476;-89
2022/01/24 07:13:20;;;;;;;24.77;11.67;;;;;;;2.33;70.06;102068.63;4930634;28;101764;-90
2022/01/24 07:16:01;;;;;;;24.53;11.10;;;;;;;2.34;70.31;102086.84;4932296;28;101799;-90
2022/01/24 07:20:53;;;;;;;24.53;11.00;;;;;;;2.38;70.15;102099.03;4936472;28;97415;-90
2022/01/24 07:23:19;;;;;;;22.87;11.63;;;;;;;2.03;70.32;102044.50;4970599;28;102125;-90
2022/01/24 07:25:44;;;;;;;25.60;12.40;;;;;;;2.46;70.07;102104.44;4957146;28;100298;-89
2022/01/24 07:28:10;;;;;;;25.13;11.20;;;;;;;2.34;70.50;102099.81;4947234;28;97004;-89
2022/01/24 07:30:36;;;;;;;24.43;11.67;;;;;;;2.44;69.92;102082.78;4949752;28;97820;-89
2022/01/24 07:33:01;;;;;;;25.97;11.37;;;;;;;2.22;70.48;102086.50;4964398;28;101038;-87
2022/01/24 07:35:28;;;;;;;22.60;11.17;;;;;;;2.26;69.95;102090.94;4939048;28;97781;-87
2022/01/24 07:37:53;;;;;;;21.47;10.30;;;;;;;2.29;70.34;102101.38;4919188;28;97072;-88
2022/01/24 07:40:21;;;;;;;26.67;12.43;;;;;;;2.15;70.98;102103.59;4932636;28;97136;-90
2022/01/24 07:43:10;;;;;;;22.53;10.27;;;;;;;2.10;70.82;102084.44;4941781;28;101410;-88
2022/01/24 07:45:36;;;;;;;23.00;10.70;;;;;;;2.20;71.12;102106.31;4912637;28;101325;-87
2022/01/24 07:48:03;;;;;;;20.77;9.87;;;;;;;2.15;70.85;102105.28;4927534;28;97798;-88
2022/01/24 07:50:28;;;;;;;19.43;9.43;;;;;;;2.12;71.41;102102.59;4964810;28;97101;-81
2022/01/24 07:52:55;;;;;;;18.07;9.03;;;;;;;2.11;71.36;102096.56;4922049;28;101252;-91
2022/01/24 07:55:22;;;;;;;24.00;10.10;;;;;;;2.17;71.70;102111.41;4972486;28;100373;-91
2022/01/24 07:57:47;;;;;;;22.93;9.37;;;;;;;2.01;71.81;102107.50;4968308;28;96679;-91
2022/01/24 08:00:14;;;;;;;27.83;12.83;;;;;;;2.14;71.68;102101.81;4971394;28;97078;-91
2022/01/24 08:02:40;;;;;;;21.20;10.83;;;;;;;2.22;70.86;102091.69;4982551;28;98445;-91
2022/01/24 08:05:07;;;;;;;27.07;12.23;;;;;;;2.14;70.81;102081.09;4968995;28;97640;-91
2022/01/24 08:07:33;;;;;;;22.33;10.20;;;;;;;2.37;70.84;102109.38;4963866;28;97171;-90
2022/01/24 08:09:58;;;;;;;20.23;10.40;;;;;;;2.35;71.01;102101.53;4966113;28;96876;-91
2022/01/24 08:12:24;;;;;;;24.80;11.43;;;;;;;2.22;71.38;102092.56;4934008;28;98464;-91
2022/01/24 08:14:50;;;;;;;24.07;12.10;;;;;;;2.19;71.35;102091.59;4934329;28;98124;-89
2022/01/24 08:17:16;;;;;;;25.47;12.83;;;;;;;2.14;71.44;102096.63;4967548;28;97057;-88
2022/01/24 08:19:41;;;;;;;29.43;12.97;;;;;;;2.08;71.62;102104.25;4948517;28;97299;-89
2022/01/24 08:22:07;;;;;;;25.57;13.07;;;;;;;2.01;71.61;102098.00;4973065;28;100778;-89
2022/01/24 08:24:32;;;;;;;24.50;11.50;;;;;;;1.99;71.56;102099.66;4979222;28;99982;-90
2022/01/24 08:26:58;;;;;;;27.57;10.80;;;;;;;1.93;72.39;102117.63;4923849;28;96794;-90
2022/01/24 08:29:24;;;;;;;23.30;10.50;;;;;;;1.92;72.80;102108.09;4928035;28;97237;-90
2022/01/24 08:31:49;;;;;;;63.80;28.53;;;;;;;2.16;71.81;102125.19;4954698;28;100358;-88
2022/01/24 08:34:15;;;;;;;71.00;32.40;;;;;;;1.95;71.82;102105.59;4969010;28;100598;-91
2022/01/24 08:36:40;;;;;;;25.43;13.13;;;;;;;2.09;72.42;102118.94;4943666;28;96756;-92
2022/01/24 08:39:08;;;;;;;34.60;12.00;;;;;;;2.17;71.70;102112.28;4949909;28;97510;-90
2022/01/24 08:41:48;;;;;;;26.77;13.73;;;;;;;2.33;71.60;102125.66;4964915;28;103898;-90
2022/01/24 08:46:43;;;;;;;23.43;12.80;;;;;;;2.40;71.52;102133.66;4957450;28;96636;-86
2022/01/24 08:49:09;;;;;;;29.33;15.53;;;;;;;2.24;71.53;102127.19;4973147;28;96731;-85
2022/01/24 08:51:34;;;;;;;36.53;17.97;;;;;;;2.33;71.73;102125.66;4933145;28;101229;-84
2022/01/24 08:54:02;;;;;;;25.37;12.50;;;;;;;2.11;71.95;102106.91;4980587;28;100950;-84
2022/01/24 08:56:28;;;;;;;28.40;13.23;;;;;;;2.18;72.47;102127.00;4951471;28;96693;-84
2022/01/24 08:58:53;;;;;;;29.40;15.17;;;;;;;2.14;72.17;102126.84;4972738;28;96725;-84
2022/01/24 09:01:19;;;;;;;21.97;12.27;;;;;;;2.27;71.76;102123.81;4937469;28;98020;-89
2022/01/24 09:03:44;;;;;;;35.57;15.90;;;;;;;2.25;72.29;102118.56;4932628;28;101063;-84
2022/01/24 09:06:11;;;;;;;21.07;13.07;;;;;;;2.21;72.42;102118.41;4934329;28;97271;-85
2022/01/24 09:08:37;;;;;;;27.00;12.57;;;;;;;2.15;72.76;102103.59;4948887;28;96827;-85
2022/01/24 09:11:03;;;;;;;17.87;10.80;;;;;;;2.20;73.28;102127.91;4933119;28;97444;-86
2022/01/24 09:13:30;;;;;;;22.90;12.53;;;;;;;2.25;73.19;102110.78;4950070;28;100105;-85
2022/01/24 09:15:56;;;;;;;20.23;12.03;;;;;;;2.39;72.52;102124.16;4946225;28;96917;-87
2022/01/24 09:18:22;;;;;;;22.27;12.73;;;;;;;2.33;72.31;102097.16;4950066;28;96798;-87
2022/01/24 09:20:51;;;;;;;21.67;13.47;;;;;;;2.35;72.37;102105.84;4941929;28;100375;-86
2022/01/24 09:23:17;;;;;;;23.87;12.67;;;;;;;2.28;72.97;102098.75;4962743;28;100483;-88
2022/01/24 09:25:43;;;;;;;24.63;13.70;;;;;;;2.34;72.41;102099.81;4927752;28;97251;-87
2022/01/24 09:28:09;;;;;;;24.03;12.23;;;;;;;2.50;72.83;102101.09;4941376;28;97733;-87
2022/01/24 09:30:35;;;;;;;27.33;13.07;;;;;;;2.58;72.26;102086.63;4951809;28;101375;-87
2022/01/24 09:33:00;;;;;;;30.20;13.60;;;;;;;2.75;71.75;102099.16;4930928;28;100845;-87
2022/01/24 09:35:29;;;;;;;22.93;12.90;;;;;;;2.77;71.17;102093.19;4929483;28;97282;-92
2022/01/24 09:37:55;;;;;;;21.83;12.00;;;;;;;2.72;71.75;102102.56;4950660;28;97150;-90
2022/01/24 09:40:22;;;;;;;24.57;12.83;;;;;;;2.69;71.88;102100.75;4972860;28;98407;-89
2022/01/24 09:42:48;;;;;;;35.67;13.93;;;;;;;2.65;71.53;102095.47;4945789;28;100026;-88
2022/01/24 09:45:14;;;;;;;21.97;13.90;;;;;;;2.67;71.66;102109.34;4960521;28;96796;-91
2022/01/24 09:47:40;;;;;;;26.93;14.73;;;;;;;2.58;71.90;102104.78;4930819;28;97915;-91
2022/01/24 09:50:11;;;;;;;29.50;14.43;;;;;;;2.54;71.72;102113.31;4945303;28;100080;-89
2022/01/24 09:52:40;;;;;;;31.07;14.00;;;;;;;2.43;72.30;102101.78;4926665;28;101570;-89
2022/01/24 09:55:06;;;;;;;26.53;14.17;;;;;;;2.39;72.39;102079.22;4959954;28;97855;-89
2022/01/24 09:57:32;;;;;;;46.30;21.90;;;;;;;2.43;72.79;102088.81;4916556;28;96714;-89
2022/01/24 09:59:57;;;;;;;34.97;18.70;;;;;;;2.51;72.92;102096.81;4942062;28;101271;-90
2022/01/24 10:02:25;;;;;;;29.37;14.40;;;;;;;2.42;72.60;102085.34;4923456;28;101332;-91
2022/01/24 10:04:51;;;;;;;24.83;13.23;;;;;;;2.33;72.72;102074.72;4960035;28;97398;-84
2022/01/24 10:07:16;;;;;;;28.20;15.90;;;;;;;2.01;72.88;102016.84;4917132;28;96928;-87
2022/01/24 10:09:52;;;;;;;29.20;16.67;;;;;;;2.38;73.14;102077.44;4931801;28;99962;-86
2022/01/24 10:18:03;;;;;;;25.80;14.13;;;;;;;2.67;73.01;102094.66;4940447;28;97087;-86
2022/01/24 10:20:32;;;;;;;25.57;15.37;;;;;;;2.66;72.81;102087.72;4947111;28;102082;-87
2022/01/24 10:23:09;;;;;;;29.13;14.77;;;;;;;2.56;72.95;102092.59;4941298;28;102008;-87
2022/01/24 10:25:45;;;;;;;27.03;14.20;;;;;;;2.60;72.83;102097.06;4949654;28;97355;-86
2022/01/24 10:28:10;;;;;;;29.97;15.30;;;;;;;2.74;72.78;102106.09;4944483;28;97807;-87
2022/01/24 10:30:36;;;;;;;25.77;15.83;;;;;;;2.69;72.37;102100.75;4940167;28;100811;-89
2022/01/24 10:33:04;;;;;;;31.70;15.87;;;;;;;2.56;73.28;102105.56;4937488;28;101340;-88
2022/01/24 10:35:38;;;;;;;33.33;15.60;;;;;;;2.60;73.25;102107.44;4946216;28;97953;-87
2022/01/24 10:38:29;;;;;;;34.53;15.00;;;;;;;2.53;73.50;102108.06;4942961;28;97162;-85
2022/01/24 10:43:36;;;;;;;26.03;15.60;;;;;;;2.57;72.71;102064.13;4965896;28;97949;-84
2022/01/24 10:46:02;;;;;;;32.73;18.93;;;;;;;2.77;72.22;102085.41;4923191;28;98505;-83
2022/01/24 10:48:30;;;;;;;29.27;16.43;;;;;;;2.68;72.57;102083.47;4923892;28;97650;-87
2022/01/24 10:51:10;;;;;;;38.67;19.67;;;;;;;2.69;72.48;102090.38;4931593;28;101517;-92
2022/01/24 10:53:39;;;;;;;29.67;17.47;;;;;;;2.65;72.86;102087.69;4968317;28;97400;-92
2022/01/24 10:56:44;;;;;;;32.80;17.67;;;;;;;2.57;73.16;102074.50;4957653;28;98219;-90
2022/01/24 10:59:22;;;;;;;35.77;17.37;;;;;;;2.63;73.65;102097.13;4865275;28;97087;-90
2022/01/24 11:01:52;;;;;;;36.13;18.53;;;;;;;2.67;72.94;102084.28;4865963;28;100770;-88
2022/01/24 11:04:19;;;;;;;32.17;17.63;;;;;;;2.64;73.16;102091.97;4866950;28;101558;-92
2022/01/24 11:06:47;;;;;;;28.60;16.40;;;;;;;2.57;73.65;102077.09;4870890;28;96831;-93
2022/01/24 11:09:15;;;;;;;30.83;15.60;;;;;;;2.71;73.70;102088.72;4883615;28;97550;-94
2022/01/24 11:11:41;;;;;;;29.80;18.27;;;;;;;2.89;72.50;102087.44;4865033;28;101731;-93
2022/01/24 11:14:09;;;;;;;26.90;14.70;;;;;;;2.72;72.40;102076.63;4884530;28;99702;-93
2022/01/24 11:16:37;;;;;;;28.97;15.40;;;;;;;2.68;73.11;102077.41;4886705;28;97202;-93
2022/01/24 11:19:08;;;;;;;33.10;17.53;;;;;;;2.70;72.79;102076.56;4872260;28;97177;-93
2022/01/24 11:21:34;;;;;;;27.23;16.63;;;;;;;2.69;73.06;102069.63;4889084;28;100156;-93
2022/01/24 11:24:04;;;;;;;33.10;17.57;;;;;;;2.61;73.43;102059.91;4888273;28;101534;-91
2022/01/24 11:26:30;;;;;;;32.97;17.43;;;;;;;2.69;73.45;102074.81;4887608;28;96664;-88
2022/01/24 11:28:56;;;;;;;34.40;17.97;;;;;;;2.57;72.66;102026.97;4900385;28;97136;-84
2022/01/24 11:31:34;;;;;;;37.30;18.83;;;;;;;2.70;72.62;102052.34;4933834;28;101377;-85
2022/01/24 11:34:30;;;;;;;31.23;17.40;;;;;;;2.78;72.60;102062.94;4933423;28;101649;-86
2022/01/24 11:36:56;;;;;;;33.20;18.33;;;;;;;2.55;72.86;102028.63;4934772;28;97203;-86
2022/01/24 11:39:22;;;;;;;29.13;16.83;;;;;;;2.75;73.00;102062.88;4928961;28;97421;-85
2022/01/24 11:41:48;;;;;;;32.10;17.20;;;;;;;2.48;73.00;102030.19;4930761;28;101365;-86
2022/01/24 11:44:17;;;;;;;37.97;19.00;;;;;;;2.72;72.74;102069.72;4913944;28;97878;-85
2022/01/24 11:46:58;;;;;;;39.30;17.80;;;;;;;2.62;73.43;102052.19;4942674;28;96777;-86
2022/01/24 11:49:36;;;;;;;29.30;16.60;;;;;;;2.67;72.99;102037.59;4914805;28;97118;-80
2022/01/24 11:52:03;;;;;;;38.83;19.93;;;;;;;3.00;72.62;102064.38;4931246;28;97561;-87
2022/01/24 11:54:49;;;;;;;45.03;22.43;;;;;;;2.70;72.30;102023.84;4923658;28;100302;-87
2022/01/24 11:57:33;;;;;;;39.70;20.57;;;;;;;2.92;71.88;102048.59;4929252;28;97879;-89
2022/01/24 12:00:05;;;;;;;54.00;24.97;;;;;;;2.96;71.96;102066.00;4963569;28;98482;-88
2022/01/24 12:02:51;;;;;;;43.10;22.93;;;;;;;2.80;72.27;102048.31;4963168;28;98448;-87
2022/01/24 12:05:20;;;;;;;32.70;18.43;;;;;;;2.69;71.99;102030.75;4949457;28;102364;-87
2022/01/24 12:07:51;;;;;;;34.37;18.33;;;;;;;2.78;72.45;102050.84;4950721;28;97160;-86
2022/01/24 12:10:23;;;;;;;31.07;17.53;;;;;;;2.67;72.91;102049.69;4973487;28;96943;-87
2022/01/24 12:12:51;;;;;;;52.00;22.17;;;;;;;2.75;73.05;102042.13;4951976;28;98569;-86
2022/01/24 12:15:39;;;;;;;36.83;18.83;;;;;;;2.89;72.35;102035.56;4945907;28;101245;-88
2022/01/24 12:18:09;;;;;;;55.67;24.50;;;;;;;2.83;72.60;102022.44;4943003;28;97226;-87
2022/01/24 12:20:34;;;;;;;71.23;29.60;;;;;;;2.83;72.66;102038.00;4965918;28;96782;-87
2022/01/24 12:23:25;;;;;;;41.53;19.77;;;;;;;2.92;72.51;102026.13;4941958;28;101038;-89
2022/01/24 12:26:07;;;;;;;58.80;27.03;;;;;;;2.93;72.42;102032.19;4945939;28;101686;-88
2022/01/24 12:28:42;;;;;;;;;;;;;;;2.84;72.94;102024.19;4948759;28;97459;-88
2022/01/24 12:31:21;;;;;;;38.90;16.87;;;;;;;2.91;72.85;102026.09;4955066;28;97419;-87
2022/01/24 12:33:57;;;;;;;35.73;17.03;;;;;;;2.87;72.89;102022.53;4933084;28;99609;-86
2022/01/24 12:36:38;;;;;;;40.03;18.07;;;;;;;2.93;72.77;102022.69;4934079;28;97882;-88
2022/01/24 12:39:15;;;;;;;38.15;18.30;;;;;;;3.08;72.43;102018.69;4950286;28;96691;-88
2022/01/24 12:41:47;;;;;;;42.47;18.70;;;;;;;2.98;72.44;102009.84;4933514;28;96862;-87
2022/01/24 12:46:59;;;;;;;43.90;20.37;;;;;;;3.11;72.50;102008.41;4963999;28;101313;-87
2022/01/24 12:49:26;;;;;;;39.60;20.40;;;;;;;3.23;71.89;102011.31;4932932;28;97220;-87
2022/01/24 12:51:52;;;;;;;39.60;20.37;;;;;;;3.24;72.11;102005.25;4913938;28;98674;-88
2022/01/24 12:54:18;;;;;;;41.07;19.30;;;;;;;3.23;72.10;101995.72;4945922;28;101231;-87
2022/01/24 12:56:43;;;;;;;35.70;17.80;;;;;;;3.14;72.42;101985.09;4950963;28;101530;-87
2022/01/24 12:59:09;;;;;;;42.50;20.57;;;;;;;3.40;71.90;101990.88;4924839;28;96731;-89
2022/01/24 13:01:37;;;;;;;46.37;25.50;;;;;;;3.27;71.90;101994.94;4949924;28;96803;-91
2022/01/24 13:04:04;;;;;;;52.97;27.40;;;;;;;3.43;71.60;102003.06;4934721;28;101913;-88
2022/01/24 13:06:35;;;;;;;29.17;18.17;;;;;;;3.39;71.89;101995.22;4934059;28;98530;-88
2022/01/24 13:09:19;;;;;;;36.07;18.93;;;;;;;3.27;71.87;101979.38;4954915;28;97657;-86